Time;durP1;ratioP1;P1;durP2;ratioP2;P2;SDS_P1;SDS_P2;PMS_P1;PMS_P2;Temp;Humidity;BMP_temperature;BMP_pressure;BME280_temperature;BME280_humidity;BME280_pressure;Samples;Min_cycle;Max_cycle;Signal;HPM_P1;HPM_P2
2023/07/19 00:09:59;;;;;;;5.65;2.72;;;17.70;1.00;;;;;;20856700;28;20495;-42
2023/07/19 00:20:00;;;;;;;4.63;2.40;;;17.70;1.00;;;;;;20848650;28;20040;-42
2023/07/19 00:30:02;;;;;;;4.50;2.70;;;17.60;1.00;;;;;;20855891;28;20063;-42
2023/07/19 00:40:04;;;;;;;5.85;2.67;;;17.50;1.00;;;;;;20852648;28;20463;-43
2023/07/19 00:50:09;;;;;;;4.13;3.20;;;17.30;1.00;;;;;;20852204;28;22247;-42
2023/07/19 01:00:11;;;;;;;6.68;3.10;;;17.30;1.00;;;;;;20852898;28;20495;-42
2023/07/19 01:10:13;;;;;;;6.35;3.08;;;17.20;1.00;;;;;;20835895;28;20048;-42
2023/07/19 01:20:14;;;;;;;5.38;3.20;;;17.20;1.00;;;;;;20844678;28;20063;-42
2023/07/19 01:30:15;;;;;;;7.13;3.22;;;17.20;1.00;;;;;;20853019;28;20499;-42
2023/07/19 01:40:16;;;;;;;6.35;4.20;;;17.10;1.00;;;;;;20845110;28;20083;-42
2023/07/19 01:50:17;;;;;;;5.95;3.70;;;17.10;1.00;;;;;;20850790;28;20041;-42
2023/07/19 02:00:18;;;;;;;5.95;3.67;;;17.10;1.00;;;;;;20861927;28;20124;-42
2023/07/19 02:10:19;;;;;;;6.28;4.35;;;17.10;1.00;;;;;;20859952;28;20034;-42
2023/07/19 02:20:20;;;;;;;7.55;4.70;;;16.90;1.00;;;;;;20860301;28;20041;-42
2023/07/19 02:30:21;;;;;;;7.30;5.72;;;16.70;1.00;;;;;;20856422;28;20040;-42
2023/07/19 02:40:22;;;;;;;8.77;5.30;;;16.70;1.00;;;;;;20842771;28;20504;-42
2023/07/19 02:50:23;;;;;;;9.73;6.30;;;16.80;1.00;;;;;;20860184;28;20032;-42
2023/07/19 03:00:24;;;;;;;8.18;7.15;;;16.80;13.00;;;;;;20855957;28;20041;-42
2023/07/19 03:10:25;;;;;;;8.07;6.65;;;16.80;34.20;;;;;;20853482;28;20041;-42
2023/07/19 03:20:27;;;;;;;9.77;7.68;;;16.80;55.20;;;;;;20847657;28;20067;-42
2023/07/19 03:30:28;;;;;;;8.43;6.60;;;16.80;81.20;;;;;;20867183;28;20053;-42
2023/07/19 03:40:30;;;;;;;11.20;7.60;;;16.70;92.80;;;;;;20849814;28;20181;-42
2023/07/19 03:50:31;;;;;;;11.85;8.02;;;16.70;99.90;;;;;;20853817;28;20049;-42
2023/07/19 04:00:32;;;;;;;9.32;7.15;;;16.70;99.90;;;;;;20853393;28;20595;-42
2023/07/19 04:10:33;;;;;;;12.15;7.97;;;16.70;99.90;;;;;;20842429;28;20045;-42
2023/07/19 04:20:36;;;;;;;9.63;8.63;;;16.70;99.90;;;;;;20847842;28;20044;-42
2023/07/19 04:30:37;;;;;;;11.20;9.05;;;16.80;99.90;;;;;;20849165;28;20044;-42
2023/07/19 04:40:38;;;;;;;10.70;7.55;;;16.80;99.90;;;;;;20853963;28;20053;-42
2023/07/19 04:50:40;;;;;;;8.45;7.18;;;16.80;99.90;;;;;;20845517;28;20747;-42
2023/07/19 05:00:41;;;;;;;9.80;7.53;;;16.90;99.90;;;;;;20854333;28;20048;-42
2023/07/19 05:10:43;;;;;;;9.80;6.85;;;17.00;99.90;;;;;;20847427;28;20043;-42
2023/07/19 05:20:44;;;;;;;11.07;7.28;;;17.10;99.90;;;;;;20850025;28;20044;-42
2023/07/19 05:30:45;;;;;;;10.95;6.65;;;17.10;98.40;;;;;;20864729;28;20044;-42
2023/07/19 05:40:46;;;;;;;12.20;6.85;;;17.10;96.30;;;;;;20859866;28;20627;-42
2023/07/19 05:50:47;;;;;;;14.45;5.60;;;17.10;87.60;;;;;;20860905;28;20037;-42
2023/07/19 06:00:49;;;;;;;7.22;5.60;;;17.20;78.30;;;;;;20856701;28;20037;-42
2023/07/19 06:10:51;;;;;;;7.30;5.20;;;17.30;77.60;;;;;;20862494;28;20542;-42
2023/07/19 06:20:52;;;;;;;7.13;4.20;;;17.40;69.00;;;;;;20875116;28;20385;-42
2023/07/19 06:30:53;;;;;;;6.93;3.70;;;17.70;15.20;;;;;;20847707;28;20041;-42
2023/07/19 06:41:01;;;;;;;4.22;2.05;;;17.90;1.00;;;;;;20873186;28;20049;-42
2023/07/19 06:51:02;;;;;;;4.70;2.20;;;18.10;1.00;;;;;;20848720;28;20040;-42
2023/07/19 07:01:03;;;;;;;5.47;2.33;;;18.20;1.00;;;;;;20840276;28;21664;-42
2023/07/19 07:11:05;;;;;;;3.17;1.40;;;18.20;1.00;;;;;;20836372;28;20067;-42
2023/07/19 07:21:06;;;;;;;3.13;1.10;;;18.40;1.00;;;;;;20847103;28;20045;-42
2023/07/19 07:31:08;;;;;;;3.25;1.60;;;18.60;1.00;;;;;;20844057;28;20409;-42
2023/07/19 07:41:11;;;;;;;3.55;1.20;;;19.00;1.00;;;;;;20857794;28;20442;-42
2023/07/19 07:51:12;;;;;;;4.28;1.50;;;19.00;1.00;;;;;;20842328;28;20048;-42
2023/07/19 08:01:13;;;;;;;4.63;1.80;;;19.20;1.00;;;;;;20831774;28;20132;-42
2023/07/19 08:11:14;;;;;;;5.88;2.63;;;19.30;1.00;;;;;;20837282;28;20045;-42
2023/07/19 08:21:15;;;;;;;6.90;3.40;;;19.60;1.00;;;;;;20840354;28;20408;-42
2023/07/19 08:31:18;;;;;;;9.25;3.80;;;19.60;1.00;;;;;;20839989;28;20048;-42
2023/07/19 08:41:24;;;;;;;5.95;2.90;;;20.20;1.00;;;;;;20836726;28;20087;-42
2023/07/19 08:51:26;;;;;;;6.95;3.00;;;20.30;1.00;;;;;;20845348;28;20033;-42
2023/07/19 09:01:27;;;;;;;6.22;2.88;;;20.30;1.00;;;;;;20831574;28;20052;-42
2023/07/19 09:11:28;;;;;;;8.95;2.90;;;20.40;1.00;;;;;;20862130;28;20377;-42
2023/07/19 09:21:36;;;;;;;5.60;2.15;;;20.60;1.00;;;;;;20861747;28;20053;-42
2023/07/19 09:31:59;;;;;;;6.20;3.05;;;20.50;1.00;;;;;;20862644;28;20037;-42
2023/07/19 09:42:02;;;;;;;4.85;1.92;;;21.10;1.00;;;;;;20863955;28;20045;-42
2023/07/19 09:52:04;;;;;;;6.72;2.00;;;21.00;1.00;;;;;;20856096;28;21057;-42
2023/07/19 10:02:07;;;;;;;5.68;2.28;;;21.10;1.00;;;;;;20837680;28;20563;-42
2023/07/19 10:12:17;;;;;;;5.28;2.17;;;20.90;1.00;;;;;;20847679;28;20041;-41
2023/07/19 10:22:18;;;;;;;7.93;2.38;;;21.00;1.00;;;;;;20875698;28;20197;-41
2023/07/19 10:32:19;;;;;;;4.20;1.70;;;20.90;1.00;;;;;;20871504;28;20048;-43
2023/07/19 10:42:20;;;;;;;3.38;1.48;;;20.80;1.00;;;;;;20873170;28;20048;-43
2023/07/19 10:52:22;;;;;;;6.65;1.80;;;20.90;1.00;;;;;;20871236;28;20613;-43
2023/07/19 11:02:24;;;;;;;2.58;1.38;;;21.00;1.00;;;;;;20870846;28;20048;-43
2023/07/19 11:12:25;;;;;;;4.90;2.00;;;21.40;1.00;;;;;;20826401;28;20056;-43
2023/07/19 11:22:27;;;;;;;4.53;2.17;;;21.70;1.00;;;;;;20875806;28;20045;-43
2023/07/19 11:32:28;;;;;;;4.40;1.90;;;21.50;1.00;;;;;;20863963;28;20059;-43
2023/07/19 11:42:46;;;;;;;5.40;1.70;;;21.50;1.00;;;;;;20871898;28;20053;-43
2023/07/19 11:52:59;;;;;;;2.90;1.20;;;21.90;1.00;;;;;;20864491;28;20405;-42
2023/07/19 12:03:03;;;;;;;4.40;1.33;;;21.90;1.00;;;;;;20822873;28;20048;-42
2023/07/19 12:13:04;;;;;;;4.00;1.20;;;22.10;1.00;;;;;;20877109;28;20043;-42
2023/07/19 12:23:05;;;;;;;3.05;1.17;;;21.90;1.00;;;;;;20871212;28;20047;-42
2023/07/19 12:33:06;;;;;;;4.25;1.23;;;22.20;1.00;;;;;;20868464;28;20060;-42
2023/07/19 12:43:07;;;;;;;2.65;1.13;;;22.60;1.00;;;;;;20871370;28;20047;-42
2023/07/19 12:53:08;;;;;;;2.97;1.88;;;22.80;1.00;;;;;;20864150;28;20056;-43
2023/07/19 13:03:09;;;;;;;3.67;1.05;;;22.80;1.00;;;;;;20868267;28;20033;-42
2023/07/19 13:13:10;;;;;;;2.33;1.10;;;22.60;1.00;;;;;;20867525;28;20517;-42
2023/07/19 13:23:16;;;;;;;3.45;1.10;;;22.50;1.00;;;;;;20867255;28;20621;-43
2023/07/19 13:33:17;;;;;;;4.03;1.30;;;23.10;1.00;;;;;;20871618;28;20060;-43
2023/07/19 13:43:19;;;;;;;3.50;1.45;;;23.10;1.00;;;;;;20833831;28;20067;-43
2023/07/19 13:53:20;;;;;;;5.43;1.42;;;23.00;1.00;;;;;;20871890;28;20059;-43
2023/07/19 14:03:21;;;;;;;2.88;1.35;;;22.90;1.00;;;;;;20887668;28;20527;-43
2023/07/19 14:13:22;;;;;;;2.55;1.25;;;22.90;1.00;;;;;;20884261;28;20067;-43
2023/07/19 14:23:25;;;;;;;3.58;1.25;;;23.10;1.00;;;;;;20885582;28;20334;-43
2023/07/19 14:33:27;;;;;;;3.30;1.30;;;23.30;1.00;;;;;;20883215;28;20067;-43
2023/07/19 14:43:28;;;;;;;4.15;1.42;;;22.80;1.00;;;;;;20885501;28;20056;-42
2023/07/19 14:53:30;;;;;;;3.58;1.30;;;22.20;1.00;;;;;;20879956;28;20045;-42
2023/07/19 15:03:31;;;;;;;4.32;1.23;;;22.00;1.00;;;;;;20874451;28;20044;-42
2023/07/19 15:13:32;;;;;;;4.45;1.60;;;21.90;1.00;;;;;;20879814;28;20036;-42
2023/07/19 15:23:33;;;;;;;4.65;1.33;;;22.00;1.00;;;;;;20840640;28;20037;-43
2023/07/19 15:33:34;;;;;;;6.13;1.50;;;21.80;1.00;;;;;;20905906;28;20051;-43
2023/07/19 15:43:35;;;;;;;4.10;1.50;;;21.60;1.00;;;;;;20854314;28;20738;-42
2023/07/19 15:53:37;;;;;;;4.10;1.85;;;21.30;1.00;;;;;;20881416;28;21735;-42
2023/07/19 16:03:39;;;;;;;3.45;1.38;;;21.30;1.00;;;;;;20905096;28;20041;-44
2023/07/19 16:13:40;;;;;;;2.65;1.27;;;21.10;1.00;;;;;;20933913;28;20079;-44
2023/07/19 16:23:41;;;;;;;3.88;1.45;;;20.90;1.00;;;;;;20910680;28;20680;-44
2023/07/19 16:33:42;;;;;;;3.90;1.50;;;20.80;1.00;;;;;;20910287;28;20573;-44
2023/07/19 16:43:44;;;;;;;3.97;1.70;;;20.70;1.00;;;;;;20855746;28;20443;-44
2023/07/19 16:53:46;;;;;;;2.55;1.30;;;20.80;1.00;;;;;;20883206;28;20205;-44
2023/07/19 17:03:47;;;;;;;3.35;1.65;;;20.70;1.00;;;;;;20887753;28;20737;-44
2023/07/19 17:13:48;;;;;;;3.30;1.70;;;20.50;1.00;;;;;;20885564;28;20102;-44
2023/07/19 17:23:50;;;;;;;4.38;1.70;;;20.40;1.00;;;;;;20880754;28;20041;-44
2023/07/19 17:33:51;;;;;;;6.20;2.20;;;20.30;1.00;;;;;;20908017;28;20110;-44
2023/07/19 17:43:53;;;;;;;4.07;2.20;;;20.40;1.00;;;;;;20910761;28;20040;-44
2023/07/19 17:53:54;;;;;;;5.57;2.90;;;20.30;1.00;;;;;;20917524;28;20077;-44
2023/07/19 18:03:55;;;;;;;5.90;2.33;;;20.10;1.00;;;;;;20914430;28;20137;-44
2023/07/19 18:13:56;;;;;;;4.45;1.98;;;20.00;1.00;;;;;;20900099;28;20107;-44
2023/07/19 18:23:57;;;;;;;5.05;2.08;;;20.00;1.00;;;;;;20893611;28;20032;-44
2023/07/19 18:33:58;;;;;;;4.15;1.90;;;19.80;1.00;;;;;;20892618;28;20137;-44
2023/07/19 18:43:59;;;;;;;4.63;2.05;;;19.60;1.00;;;;;;20887718;28;20041;-44
2023/07/19 18:54:00;;;;;;;6.00;4.00;;;19.50;1.00;;;;;;20897180;28;20045;-44
2023/07/19 19:04:01;;;;;;;4.43;2.60;;;19.40;1.00;;;;;;20888011;28;20064;-44
2023/07/19 19:14:03;;;;;;;9.13;3.30;;;19.50;1.00;;;;;;20895879;28;20052;-44
2023/07/19 19:24:05;;;;;;;5.20;3.03;;;19.30;1.00;;;;;;20892899;28;20075;-44
2023/07/19 19:34:07;;;;;;;5.45;3.00;;;19.00;1.00;;;;;;20888570;28;20561;-44
2023/07/19 19:44:08;;;;;;;7.18;3.75;;;18.90;1.00;;;;;;20894991;28;20484;-44
2023/07/19 19:54:09;;;;;;;6.20;2.95;;;18.80;1.00;;;;;;20889316;28;20036;-44
2023/07/19 20:04:10;;;;;;;6.28;3.00;;;18.80;1.00;;;;;;20887347;28;20032;-44
2023/07/19 20:14:11;;;;;;;7.15;4.05;;;18.60;1.00;;;;;;20883916;28;20039;-44
2023/07/19 20:24:13;;;;;;;6.55;3.35;;;18.50;1.00;;;;;;20859941;28;20086;-44
2023/07/19 20:34:14;;;;;;;6.75;4.00;;;18.40;1.00;;;;;;20865804;28;20041;-44
2023/07/19 20:44:17;;;;;;;5.97;3.63;;;18.40;1.00;;;;;;20894644;28;20052;-44
2023/07/19 20:54:18;;;;;;;6.43;3.50;;;18.40;1.00;;;;;;20886633;28;20520;-44
2023/07/19 21:04:19;;;;;;;7.43;3.88;;;18.40;1.00;;;;;;20890115;28;20063;-44
2023/07/19 21:14:21;;;;;;;8.88;4.82;;;18.30;1.00;;;;;;20861345;28;20033;-44
2023/07/19 21:24:23;;;;;;;7.97;4.80;;;18.30;1.00;;;;;;20852145;28;20059;-44
2023/07/19 21:34:24;;;;;;;8.40;4.63;;;18.30;1.00;;;;;;20849215;28;20049;-44
2023/07/19 21:44:25;;;;;;;6.72;4.45;;;18.20;1.00;;;;;;20847878;28;20518;-44
2023/07/19 21:54:26;;;;;;;4.10;3.25;;;18.10;1.00;;;;;;20850986;28;20091;-44
2023/07/19 22:04:27;;;;;;;6.50;3.83;;;18.00;1.00;;;;;;20844314;28;20041;-44
2023/07/19 22:14:29;;;;;;;8.88;5.80;;;18.00;1.00;;;;;;20862542;28;20036;-44
2023/07/19 22:24:30;;;;;;;8.30;5.97;;;17.90;1.00;;;;;;20854210;28;20045;-44
2023/07/19 22:34:31;;;;;;;6.43;5.20;;;17.80;1.00;;;;;;20862237;28;20537;-44
2023/07/19 22:44:32;;;;;;;8.73;5.93;;;17.70;1.00;;;;;;20862239;28;20749;-44
2023/07/19 22:54:33;;;;;;;8.95;6.65;;;17.60;1.00;;;;;;20855365;28;20283;-44
2023/07/19 23:04:34;;;;;;;8.10;4.80;;;17.50;1.00;;;;;;20862980;28;20047;-43
2023/07/19 23:14:35;;;;;;;5.53;3.80;;;17.40;1.00;;;;;;20863658;28;20036;-44
2023/07/19 23:24:36;;;;;;;5.05;3.42;;;17.20;1.00;;;;;;20848823;28;20044;-44
2023/07/19 23:34:37;;;;;;;4.30;2.90;;;17.20;1.00;;;;;;20855258;28;20496;-44
2023/07/19 23:44:39;;;;;;;4.75;3.13;;;17.10;1.00;;;;;;20863231;28;20408;-45
2023/07/19 23:54:41;;;;;;;3.40;2.38;;;17.00;1.00;;;;;;20848048;28;20412;-44
